Time;durP1;ratioP1;P1;durP2;ratioP2;P2;SDS_P1;SDS_P2;PMS_P1;PMS_P2;Temp;Humidity;BMP_temperature;BMP_pressure;BME280_temperature;BME280_humidity;BME280_pressure;Samples;Min_cycle;Max_cycle;Signal;HPM_P1;HPM_P2
2023/08/22 00:00:09;;;;;;;0.30;0.30;;;;;;;;;;5015668;28;20216;-72
2023/08/22 00:02:42;;;;;;;0.22;0.22;;;;;;;;;;5033031;28;20439;-72
2023/08/22 00:05:08;;;;;;;0.30;0.30;;;;;;;;;;4998940;28;20044;-72
2023/08/22 00:07:33;;;;;;;0.30;0.30;;;;;;;;;;5032931;28;20045;-72
2023/08/22 00:09:59;;;;;;;0.30;0.30;;;;;;;;;;5032945;28;20105;-73
2023/08/22 00:12:25;;;;;;;0.25;0.25;;;;;;;;;;5033044;28;20037;-74
2023/08/22 00:14:50;;;;;;;0.30;0.30;;;;;;;;;;5032911;28;20492;-72
2023/08/22 00:17:16;;;;;;;0.20;0.20;;;;;;;;;;5032253;28;20065;-72
2023/08/22 00:19:42;;;;;;;0.30;0.30;;;;;;;;;;5032989;28;20029;-72
2023/08/22 00:22:08;;;;;;;0.32;0.32;;;;;;;;;;5032843;28;20036;-71
2023/08/22 00:24:35;;;;;;;0.30;0.30;;;;;;;;;;5032734;28;20031;-71
2023/08/22 00:27:01;;;;;;;0.40;0.40;;;;;;;;;;5011363;28;20038;-71
2023/08/22 00:29:27;;;;;;;0.22;0.22;;;;;;;;;;5013118;28;20021;-71
2023/08/22 00:31:52;;;;;;;0.30;0.30;;;;;;;;;;4995778;28;20057;-71
2023/08/22 00:34:17;;;;;;;0.20;0.20;;;;;;;;;;5015285;28;20022;-72
2023/08/22 00:36:43;;;;;;;0.30;0.30;;;;;;;;;;5032771;28;20095;-73
2023/08/22 00:39:09;;;;;;;0.30;0.30;;;;;;;;;;5014891;28;20057;-72
2023/08/22 00:41:35;;;;;;;0.20;0.20;;;;;;;;;;5032549;28;20370;-70
2023/08/22 00:44:00;;;;;;;0.30;0.30;;;;;;;;;;5014784;28;20060;-71
2023/08/22 00:46:27;;;;;;;0.20;0.20;;;;;;;;;;5032501;28;20040;-71
2023/08/22 00:48:54;;;;;;;0.40;0.40;;;;;;;;;;5015019;28;20034;-70
2023/08/22 00:51:20;;;;;;;0.30;0.30;;;;;;;;;;5032429;28;20496;-72
2023/08/22 00:53:46;;;;;;;0.20;0.20;;;;;;;;;;5032290;28;20444;-72
2023/08/22 00:56:12;;;;;;;0.30;0.30;;;;;;;;;;5032251;28;20068;-71
2023/08/22 00:58:38;;;;;;;0.20;0.20;;;;;;;;;;5032367;28;20474;-72
2023/08/22 01:01:03;;;;;;;0.22;0.22;;;;;;;;;;5014658;28;20091;-73
2023/08/22 01:03:29;;;;;;;0.80;0.80;;;;;;;;;;5032391;28;20033;-72
2023/08/22 01:05:59;;;;;;;0.88;0.88;;;;;;;;;;5032543;28;20052;-72
2023/08/22 01:08:31;;;;;;;0.30;0.30;;;;;;;;;;5014346;28;20485;-73
2023/08/22 01:11:02;;;;;;;0.30;0.30;;;;;;;;;;5032106;28;20477;-72
2023/08/22 01:13:31;;;;;;;0.30;0.30;;;;;;;;;;5014490;28;20072;-72
2023/08/22 01:15:57;;;;;;;0.65;0.65;;;;;;;;;;5013799;28;20025;-72
2023/08/22 01:18:23;;;;;;;0.20;0.20;;;;;;;;;;5014472;28;20025;-71
2023/08/22 01:20:48;;;;;;;0.50;0.50;;;;;;;;;;5014327;28;20045;-73
2023/08/22 01:23:14;;;;;;;0.20;0.20;;;;;;;;;;5032049;28;20064;-73
2023/08/22 01:25:40;;;;;;;0.30;0.30;;;;;;;;;;5032291;28;20490;-72
2023/08/22 01:28:20;;;;;;;0.20;0.20;;;;;;;;;;5032563;28;20128;-73
2023/08/22 01:30:48;;;;;;;0.30;0.30;;;;;;;;;;5035744;28;20045;-72
2023/08/22 01:33:16;;;;;;;0.30;0.30;;;;;;;;;;5035486;28;20029;-73
2023/08/22 01:35:45;;;;;;;0.20;0.20;;;;;;;;;;5035377;28;20116;-70
2023/08/22 01:38:10;;;;;;;0.30;0.30;;;;;;;;;;5035376;28;20029;-71
2023/08/22 01:40:37;;;;;;;0.20;0.20;;;;;;;;;;5042269;28;20037;-71
2023/08/22 01:43:03;;;;;;;0.20;0.20;;;;;;;;;;5006879;28;20037;-71
2023/08/22 01:45:28;;;;;;;0.20;0.20;;;;;;;;;;5040530;28;20112;-72
2023/08/22 01:47:54;;;;;;;0.20;0.20;;;;;;;;;;5035192;28;20477;-73
2023/08/22 01:50:20;;;;;;;0.22;0.22;;;;;;;;;;5035366;28;20117;-73
2023/08/22 01:52:45;;;;;;;0.50;0.50;;;;;;;;;;5017913;28;20061;-72
2023/08/22 01:55:14;;;;;;;0.20;0.20;;;;;;;;;;5017461;28;20041;-71
2023/08/22 01:57:40;;;;;;;0.25;0.25;;;;;;;;;;5035043;28;20125;-73
2023/08/22 02:00:07;;;;;;;0.20;0.20;;;;;;;;;;5034450;28;20463;-74
2023/08/22 02:02:37;;;;;;;0.20;0.20;;;;;;;;;;5017611;28;20409;-72
2023/08/22 02:05:03;;;;;;;0.20;0.20;;;;;;;;;;5034781;28;20041;-72
2023/08/22 02:07:30;;;;;;;0.20;0.20;;;;;;;;;;5034878;28;20037;-72
2023/08/22 02:09:56;;;;;;;0.30;0.30;;;;;;;;;;5000885;28;20041;-72
2023/08/22 02:12:21;;;;;;;0.20;0.20;;;;;;;;;;5034787;28;20028;-72
2023/08/22 02:14:47;;;;;;;0.20;0.20;;;;;;;;;;5016988;28;20065;-72
2023/08/22 02:17:13;;;;;;;0.20;0.20;;;;;;;;;;5034592;28;20075;-71
2023/08/22 02:19:40;;;;;;;0.20;0.20;;;;;;;;;;5017103;28;20037;-71
2023/08/22 02:22:07;;;;;;;0.20;0.20;;;;;;;;;;5034386;28;20470;-71
2023/08/22 02:24:32;;;;;;;0.20;0.20;;;;;;;;;;5034614;28;20044;-72
2023/08/22 02:26:58;;;;;;;0.20;0.20;;;;;;;;;;5034596;28;20120;-72
2023/08/22 02:29:24;;;;;;;0.20;0.20;;;;;;;;;;5034459;28;20555;-72
2023/08/22 02:31:52;;;;;;;0.50;0.50;;;;;;;;;;5034410;28;20034;-72
2023/08/22 02:34:21;;;;;;;0.20;0.20;;;;;;;;;;5016553;28;20061;-72
2023/08/22 02:36:48;;;;;;;0.20;0.20;;;;;;;;;;5034296;28;20116;-72
2023/08/22 02:39:14;;;;;;;0.20;0.20;;;;;;;;;;5034207;28;20065;-72
2023/08/22 02:41:40;;;;;;;0.25;0.25;;;;;;;;;;5034447;28;20075;-72
2023/08/22 02:44:08;;;;;;;0.30;0.30;;;;;;;;;;5034303;28;20041;-72
2023/08/22 02:46:34;;;;;;;0.20;0.20;;;;;;;;;;5033848;28;20037;-72
2023/08/22 02:49:00;;;;;;;0.20;0.20;;;;;;;;;;5033033;28;20037;-73
2023/08/22 02:51:27;;;;;;;0.20;0.20;;;;;;;;;;5016583;28;20033;-71
2023/08/22 02:53:53;;;;;;;0.20;0.20;;;;;;;;;;5034313;28;20083;-72
2023/08/22 02:56:18;;;;;;;0.20;0.20;;;;;;;;;;5034161;28;20033;-71
2023/08/22 02:58:46;;;;;;;0.20;0.20;;;;;;;;;;5034180;28;20494;-73
2023/08/22 03:01:12;;;;;;;0.20;0.20;;;;;;;;;;5033177;28;20388;-72
2023/08/22 03:03:42;;;;;;;;;;;;;;;;;;5011176;28;20025;-72
2023/08/22 03:06:08;;;;;;;0.20;0.20;;;;;;;;;;5011883;28;20003;-73
2023/08/22 03:08:33;;;;;;;0.30;0.30;;;;;;;;;;5030363;28;20103;-73
2023/08/22 03:11:00;;;;;;;0.30;0.30;;;;;;;;;;5032336;28;20030;-71
2023/08/22 03:13:28;;;;;;;0.30;0.30;;;;;;;;;;5011562;28;20098;-76
2023/08/22 03:15:55;;;;;;;0.20;0.20;;;;;;;;;;5012532;28;20826;-72
2023/08/22 03:18:21;;;;;;;0.20;0.20;;;;;;;;;;5030106;28;20121;-76
2023/08/22 03:20:48;;;;;;;0.20;0.20;;;;;;;;;;4999003;28;20175;-73
2023/08/22 03:23:14;;;;;;;0.20;0.20;;;;;;;;;;5008968;28;20121;-71
2023/08/22 03:25:41;;;;;;;0.20;0.20;;;;;;;;;;5002771;28;20033;-72
2023/08/22 03:28:06;;;;;;;0.22;0.22;;;;;;;;;;5029512;28;20045;-72
2023/08/22 03:30:33;;;;;;;0.40;0.40;;;;;;;;;;5029505;28;20041;-72
2023/08/22 03:32:58;;;;;;;0.30;0.30;;;;;;;;;;4998407;28;20045;-72
2023/08/22 03:35:24;;;;;;;0.20;0.20;;;;;;;;;;5009117;28;20057;-70
2023/08/22 03:37:51;;;;;;;0.20;0.20;;;;;;;;;;5021944;28;20037;-73
2023/08/22 03:40:17;;;;;;;0.35;0.35;;;;;;;;;;5029044;28;20041;-71
2023/08/22 03:42:48;;;;;;;0.20;0.20;;;;;;;;;;5005930;28;20033;-73
2023/08/22 03:45:13;;;;;;;0.20;0.20;;;;;;;;;;5009738;28;20034;-75
2023/08/22 03:47:42;;;;;;;0.20;0.20;;;;;;;;;;4975640;28;20037;-77
2023/08/22 03:50:08;;;;;;;0.20;0.20;;;;;;;;;;5007007;28;20374;-70
2023/08/22 03:52:34;;;;;;;0.20;0.20;;;;;;;;;;5028411;28;20029;-76
2023/08/22 03:55:01;;;;;;;0.20;0.20;;;;;;;;;;5032422;28;20049;-73
2023/08/22 03:57:26;;;;;;;0.30;0.30;;;;;;;;;;5028463;28;20029;-72
2023/08/22 03:59:53;;;;;;;0.30;0.30;;;;;;;;;;5009246;28;20485;-74
2023/08/22 04:02:19;;;;;;;0.30;0.30;;;;;;;;;;5026821;28;20065;-79
2023/08/22 04:04:45;;;;;;;0.20;0.20;;;;;;;;;;5009769;28;20480;-77
2023/08/22 04:07:12;;;;;;;0.20;0.20;;;;;;;;;;5027287;28;20425;-73
2023/08/22 04:09:37;;;;;;;0.20;0.20;;;;;;;;;;5026830;28;20036;-72
2023/08/22 04:12:03;;;;;;;0.20;0.20;;;;;;;;;;5026565;28;20116;-74
2023/08/22 04:14:29;;;;;;;0.28;0.28;;;;;;;;;;5004085;28;20125;-72
2023/08/22 04:16:54;;;;;;;0.20;0.20;;;;;;;;;;5014034;28;20021;-73
2023/08/22 04:19:20;;;;;;;0.20;0.20;;;;;;;;;;5027305;28;20041;-73
2023/08/22 04:21:46;;;;;;;0.22;0.22;;;;;;;;;;5027078;28;20136;-72
2023/08/22 04:24:12;;;;;;;0.20;0.20;;;;;;;;;;5008874;28;20033;-71
2023/08/22 04:26:38;;;;;;;0.57;0.57;;;;;;;;;;5027966;28;20034;-72
2023/08/22 04:29:05;;;;;;;0.20;0.20;;;;;;;;;;5028822;28;20077;-72
2023/08/22 04:31:30;;;;;;;0.35;0.35;;;;;;;;;;5029010;28;20040;-72
2023/08/22 04:33:56;;;;;;;0.20;0.20;;;;;;;;;;5028704;28;20116;-72
2023/08/22 04:36:22;;;;;;;0.20;0.20;;;;;;;;;;5028502;28;20042;-77
2023/08/22 04:38:49;;;;;;;0.20;0.20;;;;;;;;;;5028718;28;20136;-73
2023/08/22 04:41:17;;;;;;;0.20;0.20;;;;;;;;;;5011144;28;20116;-73
2023/08/22 04:43:57;;;;;;;0.20;0.20;;;;;;;;;;5028307;28;20033;-72
2023/08/22 04:46:23;;;;;;;0.20;0.20;;;;;;;;;;5028150;28;20025;-73
2023/08/22 04:48:49;;;;;;;0.30;0.30;;;;;;;;;;5010738;28;20033;-71
2023/08/22 04:51:16;;;;;;;0.20;0.20;;;;;;;;;;5028462;28;20033;-72
2023/08/22 04:53:42;;;;;;;0.30;0.30;;;;;;;;;;5010905;28;20030;-72
2023/08/22 04:56:08;;;;;;;0.20;0.20;;;;;;;;;;5010871;28;20033;-72
2023/08/22 04:58:34;;;;;;;0.28;0.28;;;;;;;;;;5028519;28;20160;-72
2023/08/22 05:01:00;;;;;;;0.20;0.20;;;;;;;;;;5010733;28;20036;-72
2023/08/22 05:03:26;;;;;;;0.20;0.20;;;;;;;;;;5029557;28;20989;-71
2023/08/22 05:05:52;;;;;;;0.20;0.20;;;;;;;;;;5032117;28;20116;-73
2023/08/22 05:08:18;;;;;;;0.30;0.30;;;;;;;;;;5032064;28;20496;-71
2023/08/22 05:10:45;;;;;;;0.20;0.20;;;;;;;;;;5031591;28;20040;-73
2023/08/22 05:13:10;;;;;;;0.20;0.20;;;;;;;;;;5014299;28;20034;-73
2023/08/22 05:15:36;;;;;;;0.20;0.20;;;;;;;;;;5031949;28;20037;-75
2023/08/22 05:18:01;;;;;;;0.20;0.20;;;;;;;;;;5013775;28;20021;-74
2023/08/22 05:20:27;;;;;;;0.30;0.30;;;;;;;;;;5014338;28;20494;-74
2023/08/22 05:22:53;;;;;;;0.20;0.20;;;;;;;;;;5031832;28;20037;-71
2023/08/22 05:25:18;;;;;;;0.30;0.30;;;;;;;;;;5031628;28;20041;-71
2023/08/22 05:27:45;;;;;;;0.25;0.25;;;;;;;;;;5031136;28;20069;-77
2023/08/22 05:30:11;;;;;;;0.20;0.20;;;;;;;;;;5014110;28;20083;-74
2023/08/22 05:32:37;;;;;;;0.20;0.20;;;;;;;;;;5014107;28;20079;-73
2023/08/22 05:35:04;;;;;;;0.20;0.20;;;;;;;;;;5013422;28;20037;-74
2023/08/22 05:37:29;;;;;;;0.30;0.30;;;;;;;;;;5014539;28;20036;-70
2023/08/22 05:39:55;;;;;;;1.13;1.10;;;;;;;;;;5013692;28;20475;-73
2023/08/22 05:42:23;;;;;;;0.20;0.20;;;;;;;;;;5031883;28;20033;-73
2023/08/22 05:44:49;;;;;;;0.30;0.30;;;;;;;;;;5014026;28;20041;-72
2023/08/22 05:47:15;;;;;;;0.30;0.30;;;;;;;;;;5013638;28;20087;-73
2023/08/22 05:49:43;;;;;;;0.20;0.20;;;;;;;;;;5031071;28;20397;-72
2023/08/22 05:52:09;;;;;;;0.30;0.30;;;;;;;;;;5013397;28;20033;-73
2023/08/22 05:54:35;;;;;;;0.30;0.30;;;;;;;;;;5031434;28;20719;-72
2023/08/22 05:57:02;;;;;;;0.30;0.30;;;;;;;;;;5013146;28;20037;-71
2023/08/22 05:59:29;;;;;;;0.30;0.30;;;;;;;;;;5029991;28;20037;-71
2023/08/22 06:01:56;;;;;;;0.30;0.30;;;;;;;;;;5013110;28;20041;-74
2023/08/22 06:04:22;;;;;;;0.40;0.40;;;;;;;;;;5030969;28;20037;-73
2023/08/22 06:06:48;;;;;;;1.10;1.05;;;;;;;;;;5031108;28;20029;-73
2023/08/22 06:09:13;;;;;;;0.40;0.40;;;;;;;;;;5031154;28;20488;-74
2023/08/22 06:11:39;;;;;;;0.30;0.30;;;;;;;;;;5030970;28;20037;-72
2023/08/22 06:14:05;;;;;;;0.40;0.40;;;;;;;;;;5029845;28;20246;-73
2023/08/22 06:16:31;;;;;;;0.30;0.30;;;;;;;;;;5030895;28;20038;-73
2023/08/22 06:18:57;;;;;;;0.63;0.63;;;;;;;;;;5013073;28;20037;-73
2023/08/22 06:21:23;;;;;;;0.50;0.50;;;;;;;;;;5029630;28;20041;-74
2023/08/22 06:23:49;;;;;;;0.40;0.40;;;;;;;;;;5030614;28;20037;-72
2023/08/22 06:26:15;;;;;;;0.20;0.20;;;;;;;;;;5030422;28;20079;-74
2023/08/22 06:28:42;;;;;;;1.17;1.17;;;;;;;;;;4991956;28;20042;-74
2023/08/22 06:31:07;;;;;;;0.73;0.73;;;;;;;;;;5013310;28;20718;-73
2023/08/22 06:33:35;;;;;;;0.40;0.40;;;;;;;;;;5030649;28;20041;-71
2023/08/22 06:36:00;;;;;;;0.30;0.30;;;;;;;;;;5029735;28;20503;-72
2023/08/22 06:38:26;;;;;;;1.30;1.30;;;;;;;;;;5029084;28;20037;-74
2023/08/22 06:40:52;;;;;;;0.77;0.77;;;;;;;;;;5012337;28;20033;-71
2023/08/22 06:43:18;;;;;;;0.40;0.40;;;;;;;;;;5030850;28;20029;-71
2023/08/22 06:45:45;;;;;;;0.45;0.45;;;;;;;;;;5025824;28;20045;-73
2023/08/22 06:48:10;;;;;;;0.50;0.50;;;;;;;;;;5010814;28;20038;-72
2023/08/22 06:50:36;;;;;;;0.40;0.40;;;;;;;;;;5035288;28;20167;-71
2023/08/22 06:53:02;;;;;;;0.47;0.47;;;;;;;;;;5037649;28;20084;-72
2023/08/22 06:55:27;;;;;;;0.30;0.30;;;;;;;;;;5037101;28;20037;-72
2023/08/22 06:57:53;;;;;;;0.40;0.40;;;;;;;;;;5031489;28;20099;-71
2023/08/22 07:00:19;;;;;;;0.32;0.32;;;;;;;;;;5029935;28;20107;-73
2023/08/22 07:02:45;;;;;;;0.40;0.40;;;;;;;;;;5040105;28;20025;-77
2023/08/22 07:05:12;;;;;;;0.43;0.43;;;;;;;;;;5049987;28;20082;-73
2023/08/22 07:07:38;;;;;;;0.40;0.40;;;;;;;;;;5049830;28;20045;-74
2023/08/22 07:10:05;;;;;;;0.30;0.30;;;;;;;;;;5049750;28;20454;-72
2023/08/22 07:12:30;;;;;;;0.32;0.32;;;;;;;;;;5049906;28;20510;-73
2023/08/22 07:14:56;;;;;;;0.38;0.38;;;;;;;;;;5050213;28;20049;-73
2023/08/22 07:17:22;;;;;;;0.40;0.40;;;;;;;;;;5039764;28;20034;-73
2023/08/22 07:19:48;;;;;;;0.30;0.30;;;;;;;;;;5029321;28;20485;-78
2023/08/22 07:22:13;;;;;;;0.40;0.40;;;;;;;;;;5029988;28;20044;-74
2023/08/22 07:24:39;;;;;;;0.40;0.40;;;;;;;;;;5029804;28;20038;-73
2023/08/22 07:27:04;;;;;;;0.30;0.30;;;;;;;;;;5028197;28;20121;-73
2023/08/22 07:29:30;;;;;;;0.40;0.40;;;;;;;;;;5029693;28;20507;-72
2023/08/22 07:31:58;;;;;;;0.70;0.70;;;;;;;;;;5029085;28;20033;-74
2023/08/22 07:34:24;;;;;;;0.70;0.70;;;;;;;;;;5029734;28;20037;-75
2023/08/22 07:36:50;;;;;;;0.40;0.40;;;;;;;;;;5029327;28;20103;-74
2023/08/22 07:39:16;;;;;;;0.50;0.50;;;;;;;;;;5009924;28;20477;-73
2023/08/22 07:41:41;;;;;;;0.40;0.40;;;;;;;;;;5028319;28;20040;-73
2023/08/22 07:44:07;;;;;;;0.50;0.50;;;;;;;;;;5010236;28;20087;-72
2023/08/22 07:46:33;;;;;;;2.05;1.85;;;;;;;;;;5040908;28;20124;-71
2023/08/22 07:48:58;;;;;;;0.40;0.40;;;;;;;;;;5029589;28;20050;-74
2023/08/22 07:51:24;;;;;;;0.50;0.50;;;;;;;;;;5029430;28;20551;-72
2023/08/22 07:53:49;;;;;;;0.40;0.40;;;;;;;;;;5029054;28;20444;-72
2023/08/22 07:56:15;;;;;;;5.18;1.95;;;;;;;;;;5010970;28;20057;-73
2023/08/22 07:58:40;;;;;;;0.90;0.90;;;;;;;;;;5029213;28;20537;-72
2023/08/22 08:01:06;;;;;;;0.43;0.43;;;;;;;;;;5027931;28;20049;-72
2023/08/22 08:03:32;;;;;;;0.40;0.40;;;;;;;;;;5028950;28;20029;-73
2023/08/22 08:05:58;;;;;;;0.40;0.40;;;;;;;;;;5040014;28;20061;-73
2023/08/22 08:08:24;;;;;;;0.40;0.40;;;;;;;;;;5003820;28;20472;-75
2023/08/22 08:10:50;;;;;;;0.50;0.50;;;;;;;;;;5049121;28;20037;-72
2023/08/22 08:13:15;;;;;;;0.47;0.47;;;;;;;;;;5048799;28;20024;-73
2023/08/22 08:15:41;;;;;;;0.65;0.65;;;;;;;;;;5048881;28;20040;-77
2023/08/22 08:18:09;;;;;;;0.50;0.50;;;;;;;;;;5048666;28;20029;-73
2023/08/22 08:20:36;;;;;;;0.50;0.50;;;;;;;;;;5038174;28;20377;-72
2023/08/22 08:23:02;;;;;;;0.90;0.90;;;;;;;;;;5028633;28;20033;-74
2023/08/22 08:25:28;;;;;;;1.08;0.93;;;;;;;;;;5028886;28;20053;-76
2023/08/22 08:27:55;;;;;;;0.63;0.63;;;;;;;;;;5010537;28;20083;-73
2023/08/22 08:30:21;;;;;;;0.50;0.50;;;;;;;;;;5028984;28;20042;-73
2023/08/22 08:32:46;;;;;;;0.40;0.40;;;;;;;;;;5028817;28;20521;-72
2023/08/22 08:35:12;;;;;;;0.50;0.50;;;;;;;;;;5028660;28;20404;-71
2023/08/22 08:37:38;;;;;;;7.57;3.22;;;;;;;;;;5028388;28;20441;-72
2023/08/22 08:40:07;;;;;;;1.33;1.23;;;;;;;;;;5028478;28;20116;-72
2023/08/22 08:42:35;;;;;;;0.82;0.82;;;;;;;;;;4994530;28;20670;-75
2023/08/22 08:45:02;;;;;;;0.60;0.60;;;;;;;;;;5028877;28;20048;-73
2023/08/22 08:47:28;;;;;;;0.73;0.73;;;;;;;;;;5028849;28;20049;-72
2023/08/22 08:49:54;;;;;;;0.50;0.50;;;;;;;;;;5028359;28;20039;-72
2023/08/22 08:52:20;;;;;;;1.05;0.90;;;;;;;;;;5028505;28;20380;-76
2023/08/22 08:54:46;;;;;;;1.45;1.35;;;;;;;;;;5028629;28;20129;-73
2023/08/22 08:57:11;;;;;;;0.75;0.75;;;;;;;;;;5010638;28;20112;-76
2023/08/22 08:59:37;;;;;;;1.50;1.40;;;;;;;;;;5028916;28;20109;-71
2023/08/22 09:02:03;;;;;;;1.10;1.00;;;;;;;;;;5028371;28;20077;-73
2023/08/22 09:04:29;;;;;;;0.60;0.60;;;;;;;;;;5028514;28;20038;-75
2023/08/22 09:06:55;;;;;;;0.57;0.57;;;;;;;;;;5024776;28;20041;-72
2023/08/22 09:09:20;;;;;;;0.50;0.50;;;;;;;;;;5028159;28;20038;-72
2023/08/22 09:11:48;;;;;;;2.90;1.45;;;;;;;;;;5009327;28;20461;-72
2023/08/22 09:14:20;;;;;;;5.85;3.38;;;;;;;;;;5027170;28;20030;-71
2023/08/22 09:16:47;;;;;;;3.60;1.35;;;;;;;;;;5010275;28;20045;-72
2023/08/22 09:19:12;;;;;;;1.58;1.48;;;;;;;;;;5010706;28;20033;-82
2023/08/22 09:21:38;;;;;;;6.20;3.63;;;;;;;;;;5035240;28;20422;-72
2023/08/22 09:24:04;;;;;;;0.98;0.88;;;;;;;;;;5009881;28;20442;-73
2023/08/22 09:26:30;;;;;;;2.33;1.83;;;;;;;;;;5029579;28;20035;-72
2023/08/22 09:28:56;;;;;;;0.77;0.77;;;;;;;;;;5011441;28;20040;-72
2023/08/22 09:31:23;;;;;;;3.03;1.83;;;;;;;;;;5028544;28;20037;-73
2023/08/22 09:33:50;;;;;;;0.52;0.52;;;;;;;;;;5009871;28;20476;-77
2023/08/22 09:36:20;;;;;;;1.40;1.35;;;;;;;;;;5013274;28;20382;-84
2023/08/22 09:38:52;;;;;;;2.17;1.88;;;;;;;;;;5011326;28;20034;-73
2023/08/22 09:41:25;;;;;;;0.88;0.88;;;;;;;;;;5028299;28;20030;-81
2023/08/22 09:43:55;;;;;;;2.15;1.73;;;;;;;;;;5029952;28;20028;-74
2023/08/22 09:46:23;;;;;;;1.15;0.98;;;;;;;;;;5010394;28;20101;-73
2023/08/22 09:48:49;;;;;;;0.98;0.90;;;;;;;;;;5006643;28;20041;-72
2023/08/22 09:51:19;;;;;;;0.98;0.95;;;;;;;;;;5031057;28;20025;-73
2023/08/22 09:53:50;;;;;;;1.48;1.38;;;;;;;;;;5034030;28;20057;-73
2023/08/22 09:56:17;;;;;;;5.70;2.78;;;;;;;;;;5042218;28;20052;-72
2023/08/22 09:58:42;;;;;;;3.30;1.10;;;;;;;;;;5050870;28;20476;-73
2023/08/22 10:01:08;;;;;;;2.72;2.38;;;;;;;;;;5017074;28;20039;-70
2023/08/22 10:03:35;;;;;;;0.90;0.90;;;;;;;;;;5031124;28;20131;-71
2023/08/22 10:06:02;;;;;;;6.88;1.27;;;;;;;;;;5029663;28;20108;-72
2023/08/22 10:08:29;;;;;;;0.70;0.70;;;;;;;;;;5030525;28;20489;-73
2023/08/22 10:10:56;;;;;;;3.45;2.33;;;;;;;;;;5031081;28;20033;-72
2023/08/22 10:13:22;;;;;;;1.23;1.02;;;;;;;;;;5030795;28;20091;-76
2023/08/22 10:15:49;;;;;;;0.98;0.98;;;;;;;;;;5030951;28;20473;-73
2023/08/22 10:18:14;;;;;;;1.85;1.60;;;;;;;;;;5030187;28;20042;-74
2023/08/22 10:20:41;;;;;;;1.67;1.58;;;;;;;;;;5030226;28;20033;-74
2023/08/22 10:23:10;;;;;;;1.83;1.58;;;;;;;;;;5031199;28;20112;-78
2023/08/22 10:25:46;;;;;;;3.95;2.17;;;;;;;;;;5030706;28;20551;-73
2023/08/22 10:28:12;;;;;;;2.47;1.90;;;;;;;;;;5030505;28;20076;-73
2023/08/22 10:30:57;;;;;;;1.48;1.35;;;;;;;;;;5012882;28;20397;-73
2023/08/22 10:33:28;;;;;;;1.65;1.55;;;;;;;;;;5029896;28;20556;-73
2023/08/22 10:36:03;;;;;;;1.30;1.20;;;;;;;;;;5030157;28;20477;-72
2023/08/22 10:38:29;;;;;;;1.17;1.08;;;;;;;;;;5030227;28;20033;-73
2023/08/22 10:40:55;;;;;;;4.65;3.08;;;;;;;;;;5030064;28;20087;-76
2023/08/22 10:43:35;;;;;;;1.92;1.42;;;;;;;;;;5030492;28;20067;-73
2023/08/22 10:46:01;;;;;;;1.08;0.98;;;;;;;;;;5030459;28;20045;-73
2023/08/22 10:48:26;;;;;;;1.20;1.10;;;;;;;;;;5030302;28;20042;-73
2023/08/22 10:50:53;;;;;;;2.38;2.17;;;;;;;;;;5030373;28;20083;-73
2023/08/22 10:53:18;;;;;;;1.73;1.55;;;;;;;;;;5030538;28;20128;-73
2023/08/22 10:55:44;;;;;;;2.65;2.17;;;;;;;;;;5029722;28;20137;-73
2023/08/22 10:58:39;;;;;;;2.15;1.33;;;;;;;;;;5030032;28;20419;-72
2023/08/22 11:01:06;;;;;;;2.03;1.58;;;;;;;;;;5012967;28;20108;-73
2023/08/22 11:03:32;;;;;;;2.20;1.92;;;;;;;;;;5030389;28;20041;-73
2023/08/22 11:05:58;;;;;;;2.67;2.13;;;;;;;;;;5011900;28;20037;-73
2023/08/22 11:08:24;;;;;;;1.38;1.27;;;;;;;;;;5029578;28;20063;-73
2023/08/22 11:10:51;;;;;;;1.35;1.25;;;;;;;;;;5030297;28;20096;-72
2023/08/22 11:13:16;;;;;;;2.92;2.53;;;;;;;;;;5029753;28;20562;-73
2023/08/22 11:15:42;;;;;;;1.10;1.05;;;;;;;;;;5029866;28;20034;-73
2023/08/22 11:18:09;;;;;;;2.20;2.00;;;;;;;;;;5013606;28;20037;-75
2023/08/22 11:20:34;;;;;;;2.92;2.45;;;;;;;;;;5027778;28;20127;-73
2023/08/22 11:23:04;;;;;;;1.70;1.60;;;;;;;;;;5034572;28;20247;-72
2023/08/22 11:25:29;;;;;;;6.10;3.80;;;;;;;;;;5013839;28;20029;-77
2023/08/22 11:27:55;;;;;;;3.80;2.30;;;;;;;;;;5035374;28;20030;-73
2023/08/22 11:30:21;;;;;;;1.45;1.27;;;;;;;;;;5039997;28;20078;-72
2023/08/22 11:32:47;;;;;;;0.90;0.90;;;;;;;;;;5030896;28;20087;-75
2023/08/22 11:35:12;;;;;;;4.88;1.80;;;;;;;;;;5033147;28;20029;-73
2023/08/22 11:37:39;;;;;;;3.67;3.15;;;;;;;;;;5019196;28;20045;-73
2023/08/22 11:40:05;;;;;;;2.20;1.98;;;;;;;;;;5029293;28;20125;-74
2023/08/22 11:42:33;;;;;;;3.42;2.72;;;;;;;;;;5029260;28;20389;-73
2023/08/22 11:45:01;;;;;;;1.48;1.20;;;;;;;;;;5011767;28;20124;-73
2023/08/22 11:47:41;;;;;;;2.67;1.70;;;;;;;;;;5012215;28;20045;-79
2023/08/22 11:50:16;;;;;;;1.67;1.42;;;;;;;;;;5027982;28;20053;-73
2023/08/22 11:52:42;;;;;;;2.85;2.28;;;;;;;;;;5031531;28;20120;-73
2023/08/22 11:55:08;;;;;;;5.43;4.93;;;;;;;;;;5029895;28;20527;-74
2023/08/22 11:57:35;;;;;;;1.42;1.33;;;;;;;;;;5029291;28;20053;-73
2023/08/22 12:00:04;;;;;;;3.65;2.28;;;;;;;;;;5014518;28;20033;-73
2023/08/22 12:02:37;;;;;;;1.77;1.55;;;;;;;;;;5036768;28;20132;-74
2023/08/22 12:05:03;;;;;;;4.35;2.25;;;;;;;;;;5038753;28;20362;-74
2023/08/22 12:07:29;;;;;;;2.50;2.30;;;;;;;;;;5032383;28;20037;-74
2023/08/22 12:10:03;;;;;;;3.88;3.20;;;;;;;;;;5027132;28;20076;-74
2023/08/22 12:12:31;;;;;;;1.08;0.95;;;;;;;;;;5025738;28;20448;-73
2023/08/22 12:14:57;;;;;;;;;;;;;;;;;;5028207;28;20033;-74
2023/08/22 12:17:22;;;;;;;1.17;1.08;;;;;;;;;;5028975;28;19913;-75
2023/08/22 12:19:48;;;;;;;1.42;1.33;;;;;;;;;;5028902;28;20095;-75
2023/08/22 12:22:14;;;;;;;3.25;2.00;;;;;;;;;;5028511;28;20044;-75
2023/08/22 12:24:43;;;;;;;2.15;2.03;;;;;;;;;;5028998;28;20025;-74
2023/08/22 12:27:08;;;;;;;2.17;1.98;;;;;;;;;;5027812;28;20033;-74
2023/08/22 12:29:34;;;;;;;2.50;2.25;;;;;;;;;;5027111;28;20549;-80
2023/08/22 12:31:59;;;;;;;6.82;2.20;;;;;;;;;;5026946;28;20394;-76
2023/08/22 12:34:25;;;;;;;2.05;1.75;;;;;;;;;;5027120;28;20612;-75
2023/08/22 12:36:51;;;;;;;2.78;2.03;;;;;;;;;;5009931;28;20461;-75
2023/08/22 12:39:17;;;;;;;2.20;2.00;;;;;;;;;;5010027;28;20112;-74
2023/08/22 12:41:43;;;;;;;2.70;2.17;;;;;;;;;;5027664;28;20029;-75
2023/08/22 12:44:09;;;;;;;1.73;1.50;;;;;;;;;;5028743;28;20025;-74
2023/08/22 12:46:34;;;;;;;3.47;2.78;;;;;;;;;;5029493;28;20042;-74
2023/08/22 12:49:00;;;;;;;1.60;1.40;;;;;;;;;;5028895;28;20520;-75
2023/08/22 12:51:25;;;;;;;1.85;1.40;;;;;;;;;;5028964;28;20184;-77
2023/08/22 12:53:51;;;;;;;6.32;2.80;;;;;;;;;;5028738;28;20396;-78
2023/08/22 12:56:17;;;;;;;1.90;1.75;;;;;;;;;;5028857;28;20122;-74
2023/08/22 12:58:44;;;;;;;1.30;1.20;;;;;;;;;;5028707;28;20185;-74
2023/08/22 13:01:10;;;;;;;1.73;1.38;;;;;;;;;;5028825;28;20061;-73
2023/08/22 13:03:36;;;;;;;3.90;2.88;;;;;;;;;;5028389;28;20548;-74
2023/08/22 13:06:02;;;;;;;3.08;2.55;;;;;;;;;;5010794;28;20028;-75
2023/08/22 13:08:28;;;;;;;2.97;1.75;;;;;;;;;;5010804;28;20456;-74
2023/08/22 13:10:54;;;;;;;1.55;1.23;;;;;;;;;;5028548;28;20503;-74
2023/08/22 13:13:20;;;;;;;3.10;2.80;;;;;;;;;;5010808;28;20033;-75
2023/08/22 13:15:47;;;;;;;2.17;1.35;;;;;;;;;;5028571;28;20042;-75
2023/08/22 13:18:13;;;;;;;0.85;0.80;;;;;;;;;;5028396;28;20100;-75
2023/08/22 13:20:39;;;;;;;3.63;1.80;;;;;;;;;;5028418;28;20033;-74
2023/08/22 13:23:04;;;;;;;4.68;2.65;;;;;;;;;;5029077;28;20029;-75
2023/08/22 13:25:30;;;;;;;9.63;1.92;;;;;;;;;;5032039;28;20025;-75
2023/08/22 13:27:56;;;;;;;1.55;1.23;;;;;;;;;;5031509;28;20081;-74
2023/08/22 13:30:23;;;;;;;3.65;2.30;;;;;;;;;;5031969;28;20030;-73
2023/08/22 13:32:49;;;;;;;2.97;2.67;;;;;;;;;;5031816;28;20381;-74
2023/08/22 13:35:15;;;;;;;3.13;2.63;;;;;;;;;;5032000;28;20029;-74
2023/08/22 13:37:41;;;;;;;3.80;2.50;;;;;;;;;;5032092;28;20029;-74
2023/08/22 13:40:07;;;;;;;1.45;1.35;;;;;;;;;;5031479;28;20026;-74
2023/08/22 13:42:33;;;;;;;1.73;1.63;;;;;;;;;;5031655;28;20477;-73
2023/08/22 13:44:58;;;;;;;4.03;3.15;;;;;;;;;;5031630;28;20061;-74
2023/08/22 13:47:27;;;;;;;3.72;3.10;;;;;;;;;;5031617;28;20025;-76
2023/08/22 13:49:53;;;;;;;1.65;1.55;;;;;;;;;;5031925;28;20547;-79
2023/08/22 13:52:19;;;;;;;2.22;1.55;;;;;;;;;;5031073;28;20092;-75
2023/08/22 13:54:45;;;;;;;1.80;1.65;;;;;;;;;;5031299;28;20033;-74
2023/08/22 13:57:12;;;;;;;1.45;1.25;;;;;;;;;;5012919;28;20064;-77
2023/08/22 13:59:38;;;;;;;1.20;1.05;;;;;;;;;;5031230;28;20033;-73
2023/08/22 14:02:07;;;;;;;3.90;3.00;;;;;;;;;;5031301;28;20088;-75
2023/08/22 14:04:32;;;;;;;1.35;1.20;;;;;;;;;;5031378;28;20507;-74
2023/08/22 14:06:58;;;;;;;2.08;1.20;;;;;;;;;;5031013;28;20025;-74
2023/08/22 14:09:24;;;;;;;5.90;2.58;;;;;;;;;;5031231;28;20037;-73
2023/08/22 14:11:49;;;;;;;4.78;3.70;;;;;;;;;;5030802;28;20033;-75
2023/08/22 14:14:15;;;;;;;1.38;1.25;;;;;;;;;;5031047;28;20115;-83
2023/08/22 14:16:41;;;;;;;8.35;4.50;;;;;;;;;;5027443;28;20052;-74
2023/08/22 14:19:07;;;;;;;1.83;1.50;;;;;;;;;;5017140;28;20048;-77
2023/08/22 14:21:33;;;;;;;2.17;1.77;;;;;;;;;;5019269;28;20393;-75
2023/08/22 14:23:58;;;;;;;2.50;2.00;;;;;;;;;;5023174;28;20129;-75
2023/08/22 14:26:24;;;;;;;1.83;1.42;;;;;;;;;;5018760;28;20037;-73
2023/08/22 14:28:50;;;;;;;0.90;0.80;;;;;;;;;;5018412;28;20077;-79
2023/08/22 14:31:16;;;;;;;0.70;0.70;;;;;;;;;;5018352;28;20401;-73
2023/08/22 14:33:41;;;;;;;6.00;4.05;;;;;;;;;;5018288;28;20083;-75
2023/08/22 14:36:07;;;;;;;1.25;1.13;;;;;;;;;;5022595;28;20087;-74
2023/08/22 14:38:34;;;;;;;0.73;0.73;;;;;;;;;;5029093;28;20611;-73